Time;durP1;ratioP1;P1;durP2;ratioP2;P2;SDS_P1;SDS_P2;PMS_P1;PMS_P2;Temp;Humidity;BMP_temperature;BMP_pressure;BME280_temperature;BME280_humidity;BME280_pressure;Samples;Min_cycle;Max_cycle;Signal;HPM_P1;HPM_P2
2023/12/09 00:00:29;;;;;;;36.80;22.20;;;;;;;-1.00;100.00;97845.34;6307954;28;20225;-49
2023/12/09 00:03:31;;;;;;;30.63;20.47;;;;;;;-0.99;100.00;97843.56;6305087;28;20209;-46
2023/12/09 00:06:34;;;;;;;33.70;21.17;;;;;;;-0.99;100.00;97849.59;6306158;28;20642;-46
2023/12/09 00:09:36;;;;;;;29.57;18.60;;;;;;;-0.98;100.00;97843.41;6307036;28;20197;-49
2023/12/09 00:12:38;;;;;;;34.60;21.60;;;;;;;-0.96;100.00;97845.84;6305280;28;20664;-48
2023/12/09 00:15:40;;;;;;;33.53;21.63;;;;;;;-0.96;100.00;97848.47;6304523;28;20306;-51
2023/12/09 00:18:42;;;;;;;36.33;20.37;;;;;;;-0.98;100.00;97838.19;6306543;28;20276;-50
2023/12/09 00:21:45;;;;;;;32.47;20.17;;;;;;;-0.96;100.00;97841.44;6304285;28;20186;-52
2023/12/09 00:24:47;;;;;;;34.50;20.80;;;;;;;-0.97;100.00;97839.81;6304747;28;20667;-52
2023/12/09 00:27:49;;;;;;;31.97;20.27;;;;;;;-0.96;100.00;97838.81;6304026;28;20209;-48
2023/12/09 00:30:51;;;;;;;32.07;19.63;;;;;;;-0.96;100.00;97838.81;6304782;28;20186;-52
2023/12/09 00:33:54;;;;;;;36.37;22.70;;;;;;;-0.95;100.00;97843.06;6298386;28;20280;-49
2023/12/09 00:36:57;;;;;;;33.27;20.83;;;;;;;-0.97;100.00;97834.59;6295195;28;20681;-53
2023/12/09 00:39:59;;;;;;;31.87;18.97;;;;;;;-0.94;100.00;97842.06;6301353;28;20662;-48
2023/12/09 00:43:01;;;;;;;33.80;21.53;;;;;;;-0.94;100.00;97836.84;6298235;28;20201;-49
2023/12/09 00:46:03;;;;;;;33.57;21.80;;;;;;;-0.93;100.00;97841.13;6302974;28;20198;-51
2023/12/09 00:49:06;;;;;;;38.17;22.03;;;;;;;-1.05;100.00;97829.34;6304179;28;20662;-49
2023/12/09 00:52:08;;;;;;;32.20;19.27;;;;;;;-0.92;100.00;97844.56;6304836;28;20728;-50
2023/12/09 00:55:11;;;;;;;35.27;21.17;;;;;;;-0.92;100.00;97840.13;6303168;28;20657;-51
2023/12/09 00:58:13;;;;;;;32.97;20.33;;;;;;;-0.90;100.00;97840.78;6305452;28;20190;-50
2023/12/09 01:01:16;;;;;;;26.60;17.23;;;;;;;-0.89;100.00;97836.34;6305863;28;20198;-47
2023/12/09 01:04:18;;;;;;;28.47;17.87;;;;;;;-1.00;100.00;97823.63;6288238;28;20583;-48
2023/12/09 01:07:20;;;;;;;34.37;20.93;;;;;;;-1.10;100.00;97814.16;6302914;28;20194;-51
2023/12/09 01:10:22;;;;;;;35.80;20.23;;;;;;;-0.88;100.00;97844.06;6299703;28;20734;-46
2023/12/09 01:13:24;;;;;;;30.27;19.33;;;;;;;-1.07;100.00;97815.63;6306022;28;20213;-53
2023/12/09 01:16:27;;;;;;;35.27;19.77;;;;;;;-0.87;100.00;97834.41;6306735;28;20696;-50
2023/12/09 01:19:29;;;;;;;37.90;21.40;;;;;;;-0.86;100.00;97842.09;6301979;28;20194;-50
2023/12/09 01:22:31;;;;;;;33.60;21.00;;;;;;;-0.86;100.00;97851.72;6300065;28;20210;-50
2023/12/09 01:25:33;;;;;;;34.77;19.87;;;;;;;-0.87;100.00;97856.13;6296595;28;20674;-50
2023/12/09 01:28:35;;;;;;;29.63;18.17;;;;;;;-0.85;100.00;97855.97;6304961;28;20646;-50
2023/12/09 01:31:37;;;;;;;32.00;19.07;;;;;;;-0.85;100.00;97859.41;6307482;28;20237;-52
2023/12/09 01:34:40;;;;;;;32.93;20.70;;;;;;;-0.83;100.00;97856.63;6311834;28;20204;-52
2023/12/09 01:37:43;;;;;;;30.13;18.20;;;;;;;-0.83;100.00;97852.22;6311381;28;20551;-50
2023/12/09 01:40:52;;;;;;;28.93;18.37;;;;;;;-0.82;100.00;97864.31;6313079;28;20186;-51
2023/12/09 01:43:54;;;;;;;28.33;16.97;;;;;;;-0.81;100.00;97858.09;6290620;28;20202;-52
2023/12/09 01:46:56;;;;;;;25.73;17.30;;;;;;;-0.79;100.00;97865.75;6311800;28;20209;-47
2023/12/09 01:49:58;;;;;;;33.30;20.60;;;;;;;-0.80;100.00;97864.13;6309727;28;20186;-49
2023/12/09 01:53:01;;;;;;;31.73;19.57;;;;;;;-0.84;100.00;97863.66;6292908;28;20194;-49
2023/12/09 01:56:06;;;;;;;30.97;18.47;;;;;;;-1.05;100.00;97824.13;6315190;28;20186;-46
2023/12/09 01:59:09;;;;;;;32.27;18.83;;;;;;;-0.82;100.00;97861.69;6312762;28;20758;-49
2023/12/09 02:02:11;;;;;;;27.83;16.73;;;;;;;-0.91;100.00;97854.84;6312386;28;20186;-48
2023/12/09 02:05:13;;;;;;;26.20;16.00;;;;;;;-0.79;100.00;97864.00;6308077;28;20210;-47
2023/12/09 02:08:15;;;;;;;29.93;17.83;;;;;;;-0.77;100.00;97874.28;6306956;28;20194;-48
2023/12/09 02:11:47;;;;;;;27.33;17.13;;;;;;;-0.77;100.00;97874.28;6310102;28;20259;-50
2023/12/09 02:15:05;;;;;;;29.23;17.13;;;;;;;-0.76;100.00;97872.47;6307450;28;20550;-48
2023/12/09 02:18:08;;;;;;;27.27;16.20;;;;;;;-0.77;100.00;97873.47;6307582;28;20195;-47
2023/12/09 02:21:10;;;;;;;27.97;16.60;;;;;;;-0.77;100.00;97868.22;6308958;28;20178;-48
2023/12/09 02:24:12;;;;;;;27.70;15.33;;;;;;;-0.75;100.00;97867.06;6310881;28;20214;-47
2023/12/09 02:27:27;;;;;;;27.90;16.37;;;;;;;-0.75;100.00;97863.63;6288494;28;20755;-49
2023/12/09 02:30:48;;;;;;;26.73;17.60;;;;;;;-0.75;100.00;97867.06;6308990;28;20190;-49
2023/12/09 02:33:51;;;;;;;30.63;17.73;;;;;;;-0.86;100.00;97838.66;6290390;28;20289;-47
2023/12/09 02:36:56;;;;;;;30.43;17.73;;;;;;;-0.74;100.00;97853.00;6305974;28;20198;-49
2023/12/09 02:40:00;;;;;;;27.83;16.93;;;;;;;-0.73;100.00;97853.84;6291163;28;20233;-49
2023/12/09 02:43:03;;;;;;;32.33;18.93;;;;;;;-0.72;100.00;97855.47;6294417;28;20209;-48
2023/12/09 02:46:05;;;;;;;34.70;19.20;;;;;;;-0.76;100.00;97857.59;6308553;28;20724;-47
2023/12/09 02:49:07;;;;;;;34.80;18.93;;;;;;;-0.76;100.00;97848.94;6295473;28;20190;-47
2023/12/09 02:52:11;;;;;;;29.63;17.47;;;;;;;-0.96;100.00;97830.97;6292635;28;20350;-48
2023/12/09 02:55:13;;;;;;;29.60;17.93;;;;;;;-0.75;100.00;97855.78;6302653;28;20286;-48
2023/12/09 02:58:15;;;;;;;34.13;19.60;;;;;;;-0.77;100.00;97861.19;6308622;28;20193;-49
2023/12/09 03:01:18;;;;;;;32.57;18.67;;;;;;;-0.77;100.00;97871.66;6307346;28;20192;-50
2023/12/09 03:04:20;;;;;;;35.37;19.80;;;;;;;-0.78;100.00;97872.66;6302269;28;20209;-50
2023/12/09 03:07:22;;;;;;;34.90;18.97;;;;;;;-0.76;100.00;97877.72;6304123;28;20195;-49
2023/12/09 03:10:24;;;;;;;33.40;20.97;;;;;;;-0.76;100.00;97877.72;6301493;28;20903;-50
2023/12/09 03:13:26;;;;;;;34.50;19.97;;;;;;;-0.79;100.00;97871.84;6302639;28;20190;-50
2023/12/09 03:16:28;;;;;;;30.97;20.17;;;;;;;-0.81;100.00;97876.41;6301518;28;20544;-49
2023/12/09 03:19:31;;;;;;;39.67;21.83;;;;;;;-0.83;100.00;97869.72;6299810;28;20685;-48
2023/12/09 03:22:33;;;;;;;36.43;21.90;;;;;;;-0.84;100.00;97874.13;6302468;28;20523;-53
2023/12/09 03:25:35;;;;;;;33.83;20.03;;;;;;;-0.83;100.00;97872.34;6302196;28;20198;-50
2023/12/09 03:28:40;;;;;;;34.10;20.57;;;;;;;-0.82;100.00;97877.38;6307410;28;21809;-49
2023/12/09 03:31:42;;;;;;;34.27;19.57;;;;;;;-0.81;100.00;97880.81;6306168;28;20749;-48
2023/12/09 03:34:44;;;;;;;35.57;20.70;;;;;;;-0.97;100.00;97857.31;6285820;28;20202;-49
2023/12/09 03:37:47;;;;;;;38.10;21.97;;;;;;;-0.80;100.00;97885.88;6300139;28;20194;-45
2023/12/09 03:40:49;;;;;;;33.03;20.30;;;;;;;-0.80;100.00;97879.81;6312209;28;20194;-51
2023/12/09 03:43:52;;;;;;;34.77;19.80;;;;;;;-0.80;100.00;97874.59;6306552;28;20779;-49
2023/12/09 03:46:54;;;;;;;36.63;22.20;;;;;;;-0.81;100.00;97871.16;6291787;28;20206;-49
2023/12/09 03:49:56;;;;;;;38.83;21.47;;;;;;;-0.80;100.00;97878.03;6290893;28;20208;-49
2023/12/09 03:52:58;;;;;;;35.87;21.77;;;;;;;-1.04;100.00;97851.88;6290686;28;20273;-49
2023/12/09 03:56:01;;;;;;;39.77;23.03;;;;;;;-0.81;100.00;97899.94;6306416;28;20589;-51
2023/12/09 03:59:03;;;;;;;40.70;21.50;;;;;;;-0.81;100.00;97894.72;6309676;28;20761;-52
2023/12/09 04:02:05;;;;;;;38.13;22.33;;;;;;;-0.83;100.00;97894.06;6309154;28;20194;-48
2023/12/09 04:05:07;;;;;;;38.77;22.97;;;;;;;-0.81;100.00;97899.94;6292802;28;20737;-51
2023/12/09 04:08:09;;;;;;;41.87;23.77;;;;;;;-0.81;100.00;97899.13;6305647;28;20202;-49
2023/12/09 04:11:11;;;;;;;37.47;22.27;;;;;;;-0.81;100.00;97899.94;6307520;28;20198;-47
2023/12/09 04:14:13;;;;;;;38.57;22.87;;;;;;;-0.85;100.00;97901.25;6307114;28;20243;-46
2023/12/09 04:17:16;;;;;;;39.60;22.43;;;;;;;-1.07;100.00;97873.97;6309400;28;20650;-46
2023/12/09 04:20:19;;;;;;;40.73;23.53;;;;;;;-0.98;100.00;97893.09;6302858;28;20198;-52
2023/12/09 04:23:21;;;;;;;41.60;24.83;;;;;;;-0.85;100.00;97906.47;6307134;28;20251;-46
2023/12/09 04:26:24;;;;;;;39.23;23.40;;;;;;;-0.86;100.00;97915.31;6310402;28;20266;-49
2023/12/09 04:29:26;;;;;;;38.13;22.43;;;;;;;-0.86;100.00;97898.81;6305804;28;20195;-51
2023/12/09 04:32:31;;;;;;;39.00;22.80;;;;;;;-0.86;100.00;97907.47;6302814;28;20226;-53
2023/12/09 04:35:33;;;;;;;36.57;21.80;;;;;;;-0.86;100.00;97910.06;6300613;28;20197;-49
2023/12/09 04:38:35;;;;;;;35.13;19.20;;;;;;;-0.95;100.00;97902.41;6303192;28;20189;-50
2023/12/09 04:41:37;;;;;;;37.50;20.70;;;;;;;-0.85;100.00;97908.28;6297992;28;20199;-46
2023/12/09 04:44:40;;;;;;;37.47;20.90;;;;;;;-0.95;100.00;97891.94;6304616;28;20299;-47
2023/12/09 04:47:42;;;;;;;35.03;20.83;;;;;;;-0.89;100.00;97905.16;6304511;28;20285;-52
2023/12/09 04:50:44;;;;;;;34.67;19.40;;;;;;;-0.88;100.00;97906.81;6302842;28;20456;-51
2023/12/09 04:53:46;;;;;;;29.60;19.10;;;;;;;-1.06;100.00;97891.28;6302398;28;20270;-51
2023/12/09 04:56:49;;;;;;;33.63;20.27;;;;;;;-0.88;100.00;97921.69;6304013;28;20182;-48
2023/12/09 04:59:51;;;;;;;32.90;19.27;;;;;;;-0.89;100.00;97920.03;6305195;28;20575;-50
2023/12/09 05:02:53;;;;;;;28.73;17.93;;;;;;;-0.88;100.00;97921.69;6303109;28;20197;-52
2023/12/09 05:05:55;;;;;;;27.23;16.93;;;;;;;-0.88;100.00;97912.06;6308051;28;20194;-47
2023/12/09 05:08:57;;;;;;;26.10;16.57;;;;;;;-0.85;100.00;97910.88;6305689;28;20548;-52
2023/12/09 05:12:01;;;;;;;27.60;16.73;;;;;;;-0.85;100.00;97910.88;6306094;28;20568;-48
2023/12/09 05:15:03;;;;;;;32.53;19.23;;;;;;;-0.85;100.00;97903.03;6303243;28;21202;-52
2023/12/09 05:18:06;;;;;;;31.80;17.77;;;;;;;-0.87;100.00;97903.22;6301087;28;20268;-49
2023/12/09 05:21:08;;;;;;;30.70;17.70;;;;;;;-0.95;100.00;97903.22;6299248;28;20843;-51
2023/12/09 05:24:10;;;;;;;28.57;16.33;;;;;;;-1.01;100.00;97888.19;6301922;28;20219;-46
2023/12/09 05:27:13;;;;;;;28.33;17.03;;;;;;;-0.89;100.00;97910.38;6301470;28;20218;-50
2023/12/09 05:30:16;;;;;;;28.50;16.27;;;;;;;-1.08;100.00;97877.56;6304966;28;20741;-46
2023/12/09 05:33:18;;;;;;;30.33;17.77;;;;;;;-0.91;100.00;97912.38;6305913;28;20591;-49
2023/12/09 05:36:20;;;;;;;29.33;17.10;;;;;;;-0.92;100.00;97920.38;6298572;28;20669;-49
2023/12/09 05:39:23;;;;;;;30.23;16.50;;;;;;;-0.92;100.00;97930.84;6305132;28;20279;-49
2023/12/09 05:42:25;;;;;;;26.80;17.00;;;;;;;-0.92;100.00;97929.03;6303300;28;20190;-49
2023/12/09 05:45:28;;;;;;;27.17;16.27;;;;;;;-0.91;100.00;97919.41;6299825;28;20686;-48
2023/12/09 05:48:33;;;;;;;28.03;15.83;;;;;;;-0.88;100.00;97922.50;6305314;28;20204;-48
2023/12/09 05:51:36;;;;;;;24.00;15.70;;;;;;;-0.88;100.00;97930.34;6308812;28;20697;-49
2023/12/09 05:54:39;;;;;;;28.23;17.57;;;;;;;-0.86;100.00;97932.78;6302958;28;20194;-48
2023/12/09 05:57:41;;;;;;;27.00;16.40;;;;;;;-0.88;100.00;97922.50;6308093;28;21586;-52
2023/12/09 06:00:44;;;;;;;24.80;15.03;;;;;;;-0.87;100.00;97923.31;6309964;28;20205;-50
2023/12/09 06:03:46;;;;;;;29.57;17.80;;;;;;;-0.87;100.00;97931.97;6307570;28;20201;-48
2023/12/09 06:06:48;;;;;;;28.43;16.60;;;;;;;-0.89;100.00;97928.69;6310401;28;20209;-49
2023/12/09 06:09:50;;;;;;;24.87;15.43;;;;;;;-0.88;100.00;97932.97;6312361;28;20562;-49
2023/12/09 06:12:53;;;;;;;24.93;14.77;;;;;;;-0.89;100.00;97931.31;6309187;28;20206;-51
2023/12/09 06:15:55;;;;;;;23.60;14.60;;;;;;;-0.90;100.00;97927.06;6307330;28;20247;-49
2023/12/09 06:18:58;;;;;;;18.53;12.70;;;;;;;-1.09;100.00;97898.63;6304899;28;20182;-52
2023/12/09 06:22:00;;;;;;;21.37;13.20;;;;;;;-0.89;100.00;97933.94;6310760;28;20266;-46
2023/12/09 06:25:02;;;;;;;18.67;12.23;;;;;;;-0.94;100.00;97923.13;6314693;28;20222;-48
2023/12/09 06:28:04;;;;;;;22.83;13.23;;;;;;;-0.89;100.00;97931.31;6308904;28;20186;-50
2023/12/09 06:31:07;;;;;;;21.70;12.90;;;;;;;-0.90;100.00;97927.06;6309457;28;21778;-49
2023/12/09 06:34:09;;;;;;;18.47;12.03;;;;;;;-0.90;100.00;97928.88;6308639;28;20681;-51
2023/12/09 06:37:11;;;;;;;20.03;12.60;;;;;;;-0.90;100.00;97921.03;6304120;28;20278;-51
2023/12/09 06:40:14;;;;;;;17.43;11.67;;;;;;;-0.93;100.00;97924.78;6307895;28;20666;-49
2023/12/09 06:43:16;;;;;;;21.07;12.97;;;;;;;-0.98;100.00;97921.03;6306093;28;20273;-47
2023/12/09 06:46:19;;;;;;;19.47;13.13;;;;;;;-0.95;100.00;97920.69;6292341;28;20213;-49
2023/12/09 06:49:22;;;;;;;17.47;11.27;;;;;;;-0.94;100.00;97927.56;6295388;28;20305;-49
2023/12/09 06:52:24;;;;;;;17.63;11.40;;;;;;;-0.93;100.00;97922.19;6306416;28;20194;-49
2023/12/09 06:55:26;;;;;;;16.00;10.73;;;;;;;-0.93;100.00;97922.19;6306200;28;20265;-49
2023/12/09 06:58:28;;;;;;;19.10;11.80;;;;;;;-0.89;100.00;97928.69;6310516;28;20187;-50
2023/12/09 07:01:30;;;;;;;16.60;10.27;;;;;;;-1.04;100.00;97891.91;6307026;28;20202;-51
2023/12/09 07:04:36;;;;;;;14.80;10.10;;;;;;;-1.00;100.00;97891.59;6306794;28;20195;-49
2023/12/09 07:07:38;;;;;;;15.87;10.23;;;;;;;-0.80;100.00;97919.06;6306718;28;20749;-51
2023/12/09 07:10:45;;;;;;;15.30;10.70;;;;;;;-0.80;100.00;97919.88;6308735;28;20530;-51
2023/12/09 07:13:48;;;;;;;14.33;10.47;;;;;;;-0.79;100.00;97921.53;6308879;28;20706;-46
2023/12/09 07:16:50;;;;;;;15.03;10.10;;;;;;;-0.77;100.00;97923.16;6302523;28;20194;-49
2023/12/09 07:19:52;;;;;;;14.77;9.50;;;;;;;-0.77;100.00;97920.53;6306438;28;20204;-50
2023/12/09 07:22:55;;;;;;;14.40;9.80;;;;;;;-0.75;100.00;97922.00;6303376;28;20191;-51
2023/12/09 07:25:57;;;;;;;12.67;9.30;;;;;;;-0.75;100.00;97919.38;6304580;28;20203;-53
2023/12/09 07:29:03;;;;;;;13.27;8.37;;;;;;;-0.75;100.00;97918.56;6304022;28;20794;-52
2023/12/09 07:32:06;;;;;;;11.20;8.20;;;;;;;-0.87;100.00;97897.16;6302538;28;20240;-52
2023/12/09 07:35:08;;;;;;;13.53;8.73;;;;;;;-0.73;100.00;97917.44;6306285;28;20197;-53
2023/12/09 07:38:11;;;;;;;12.43;8.97;;;;;;;-0.70;100.00;97921.50;6305996;28;20198;-51
2023/12/09 07:41:14;;;;;;;14.07;9.73;;;;;;;-0.69;100.00;97928.38;6306282;28;20238;-53
2023/12/09 07:44:20;;;;;;;15.70;9.97;;;;;;;-0.69;100.00;97921.38;6304975;28;20186;-49
2023/12/09 07:47:22;;;;;;;14.00;8.93;;;;;;;-0.70;100.00;97926.75;6307338;28;20194;-50
2023/12/09 07:50:24;;;;;;;14.97;9.73;;;;;;;-0.71;100.00;97927.72;6307794;28;20209;-54
2023/12/09 07:53:27;;;;;;;11.37;8.03;;;;;;;-0.69;100.00;97930.97;6306184;28;20193;-54
2023/12/09 07:56:29;;;;;;;10.60;7.77;;;;;;;-0.70;100.00;97926.75;6306514;28;20195;-47
2023/12/09 07:59:31;;;;;;;11.53;7.17;;;;;;;-0.69;100.00;97926.59;6309349;28;20242;-49
2023/12/09 08:02:34;;;;;;;10.83;7.67;;;;;;;-0.67;100.00;97936.88;6309893;28;20210;-50
2023/12/09 08:05:36;;;;;;;9.83;7.60;;;;;;;-0.70;100.00;97924.94;6308096;28;20201;-48
2023/12/09 08:08:38;;;;;;;10.67;7.00;;;;;;;-0.70;100.00;97918.91;6302704;28;20222;-49
2023/12/09 08:11:41;;;;;;;7.63;6.17;;;;;;;-0.69;100.00;97923.97;6306911;28;20198;-48
2023/12/09 08:14:44;;;;;;;7.47;6.00;;;;;;;-0.67;100.00;97919.38;6312786;28;20201;-50
2023/12/09 08:17:46;;;;;;;8.40;6.50;;;;;;;-0.62;100.00;97921.50;6308992;28;20653;-51
2023/12/09 08:20:48;;;;;;;6.77;5.40;;;;;;;-0.81;100.00;97886.03;6306174;28;20190;-52
2023/12/09 08:23:50;;;;;;;8.53;6.10;;;;;;;-0.62;100.00;97921.50;6307501;28;20704;-50
2023/12/09 08:26:53;;;;;;;8.53;6.33;;;;;;;-0.64;100.00;97915.63;6309131;28;20205;-52
2023/12/09 08:29:55;;;;;;;6.93;5.70;;;;;;;-0.67;100.00;97918.56;6310407;28;20206;-50
2023/12/09 08:33:00;;;;;;;8.97;6.23;;;;;;;-0.62;100.00;97916.28;6310692;28;20222;-54
2023/12/09 08:36:03;;;;;;;7.57;5.67;;;;;;;-0.91;100.00;97875.75;6299982;28;20194;-50
2023/12/09 08:39:05;;;;;;;7.10;5.83;;;;;;;-0.59;100.00;97919.41;6304540;28;20247;-52
2023/12/09 08:42:10;;;;;;;7.40;5.97;;;;;;;-0.56;100.00;97921.66;6303993;28;20212;-51
2023/12/09 08:45:14;;;;;;;7.67;6.50;;;;;;;-0.54;100.00;97931.97;6304143;28;20198;-50
2023/12/09 08:48:17;;;;;;;8.00;6.13;;;;;;;-0.61;100.00;97907.44;6301914;28;20642;-52
2023/12/09 08:51:20;;;;;;;7.63;5.93;;;;;;;-0.53;100.00;97926.56;6306571;28;20275;-50
2023/12/09 08:54:22;;;;;;;8.00;5.87;;;;;;;-0.50;100.00;97932.44;6305152;28;20662;-48
2023/12/09 08:57:25;;;;;;;8.73;6.93;;;;;;;-0.54;100.00;97939.84;6308299;28;22340;-53
2023/12/09 09:00:27;;;;;;;9.77;6.60;;;;;;;-0.52;100.00;97936.06;6287045;28;20782;-50
2023/12/09 09:03:30;;;;;;;7.43;6.10;;;;;;;-0.47;100.00;97935.56;6305710;28;20266;-54
2023/12/09 09:06:32;;;;;;;7.97;6.67;;;;;;;-0.48;100.00;97931.31;6303587;28;20229;-50
2023/12/09 09:09:37;;;;;;;8.80;6.80;;;;;;;-0.49;100.00;97937.53;6303832;28;20221;-54
2023/12/09 09:12:39;;;;;;;10.40;7.57;;;;;;;-0.49;100.00;97934.91;6300729;28;20267;-50
2023/12/09 09:15:45;;;;;;;9.30;7.37;;;;;;;-0.47;100.00;97939.97;6306730;28;20189;-50
2023/12/09 09:18:48;;;;;;;10.13;7.40;;;;;;;-0.47;100.00;97929.50;6306076;28;20259;-51
2023/12/09 09:21:52;;;;;;;9.40;7.70;;;;;;;-0.48;100.00;97938.34;6304087;28;20193;-54
2023/12/09 09:24:54;;;;;;;9.97;7.40;;;;;;;-0.49;100.00;97934.06;6304917;28;20224;-50
2023/12/09 09:27:56;;;;;;;9.37;6.93;;;;;;;-0.47;100.00;97930.31;6304422;28;20578;-51
2023/12/09 09:30:59;;;;;;;9.37;7.37;;;;;;;-0.44;100.00;97935.25;6308318;28;20198;-51
2023/12/09 09:34:01;;;;;;;8.33;7.07;;;;;;;-0.37;100.00;97932.75;6301866;28;20762;-51
2023/12/09 09:37:04;;;;;;;9.03;6.97;;;;;;;-0.37;100.00;97933.59;6295188;28;20203;-51
2023/12/09 09:40:07;;;;;;;8.63;7.13;;;;;;;-0.39;100.00;97938.19;6311255;28;20190;-51
2023/12/09 09:43:16;;;;;;;9.77;7.20;;;;;;;-0.38;100.00;97931.13;6305014;28;20182;-50
2023/12/09 09:46:20;;;;;;;9.10;6.80;;;;;;;-0.52;100.00;97901.22;6304509;28;20202;-53
2023/12/09 09:49:24;;;;;;;8.70;6.77;;;;;;;-0.32;100.00;97917.38;6306841;28;20198;-53
2023/12/09 09:52:28;;;;;;;8.77;6.50;;;;;;;-0.28;100.00;97911.66;6306239;28;20580;-52
2023/12/09 09:55:31;;;;;;;7.87;6.33;;;;;;;-0.21;100.00;97909.16;6307261;28;20945;-52
2023/12/09 09:58:34;;;;;;;11.10;8.13;;;;;;;-0.18;100.00;97906.22;6308087;28;20611;-53
2023/12/09 10:01:37;;;;;;;9.33;7.37;;;;;;;-0.32;100.00;97873.69;6308109;28;20195;-54
2023/12/09 10:04:39;;;;;;;7.87;6.10;;;;;;;-0.06;100.00;97896.19;6310597;28;20197;-52
2023/12/09 10:07:43;;;;;;;9.77;7.63;;;;;;;0.00;100.00;97898.16;6309246;28;20308;-51
2023/12/09 10:10:46;;;;;;;8.90;7.13;;;;;;;0.03;100.00;97897.00;6311149;28;20785;-50
2023/12/09 10:13:48;;;;;;;11.03;7.67;;;;;;;0.05;100.00;97895.00;6312009;28;20201;-54
2023/12/09 10:16:51;;;;;;;8.20;6.77;;;;;;;0.02;100.00;97864.75;6312805;28;20246;-54
2023/12/09 10:20:00;;;;;;;9.70;7.17;;;;;;;0.21;100.00;97880.06;6311097;28;20195;-51
2023/12/09 10:23:03;;;;;;;7.77;6.87;;;;;;;0.30;100.00;97877.41;6311854;28;20214;-51
2023/12/09 10:26:06;;;;;;;8.10;6.47;;;;;;;0.37;100.00;97878.34;6309144;28;20262;-52
2023/12/09 10:29:08;;;;;;;8.53;7.10;;;;;;;0.39;100.00;97873.72;6307879;28;20182;-48
2023/12/09 10:32:12;;;;;;;10.10;7.63;;;;;;;0.37;100.00;97867.84;6306473;28;20222;-51
2023/12/09 10:35:17;;;;;;;9.63;7.90;;;;;;;0.39;100.00;97864.06;6295847;28;20194;-55
2023/12/09 10:38:19;;;;;;;12.03;8.70;;;;;;;0.37;100.00;97867.84;6303428;28;20782;-51
2023/12/09 10:41:22;;;;;;;22.17;16.80;;;;;;;0.34;100.00;97860.31;6304493;28;20748;-52
2023/12/09 10:44:24;;;;;;;12.47;9.23;;;;;;;0.38;100.00;97851.13;6312603;28;20199;-51
2023/12/09 10:47:26;;;;;;;15.13;11.27;;;;;;;0.40;100.00;97846.56;6308453;28;20214;-54
2023/12/09 10:50:30;;;;;;;19.20;12.70;;;;;;;0.39;100.00;97843.09;6308428;28;20217;-52
2023/12/09 10:53:32;;;;;;;12.63;9.33;;;;;;;0.37;100.00;97839.84;6310656;28;20749;-50
2023/12/09 10:56:34;;;;;;;11.30;8.53;;;;;;;0.39;100.00;97837.03;6309078;28;20190;-49
2023/12/09 10:59:38;;;;;;;13.00;9.53;;;;;;;0.38;100.00;97827.56;6293330;28;20886;-53
2023/12/09 11:02:40;;;;;;;12.20;8.80;;;;;;;0.30;100.00;97811.91;6288147;28;20629;-52
2023/12/09 11:05:51;;;;;;;11.77;9.10;;;;;;;0.42;100.00;97827.03;6308766;28;20693;-52
2023/12/09 11:08:54;;;;;;;16.53;14.20;;;;;;;0.45;100.00;97833.75;6295268;28;20673;-52
2023/12/09 11:11:56;;;;;;;224.03;137.33;;;;;;;0.58;100.00;97830.53;6309771;28;20201;-52
2023/12/09 11:15:14;;;;;;;212.90;137.03;;;;;;;0.67;100.00;97824.25;6305808;28;20190;-52
2023/12/09 11:18:17;;;;;;;58.73;34.17;;;;;;;0.66;100.00;97825.25;6306577;28;20635;-54
2023/12/09 11:21:22;;;;;;;24.23;17.10;;;;;;;0.48;100.00;97823.72;6307918;28;20199;-52
2023/12/09 11:24:30;;;;;;;16.33;11.50;;;;;;;0.44;100.00;97817.22;6308413;28;20187;-55
2023/12/09 11:27:37;;;;;;;16.23;11.67;;;;;;;0.25;100.00;97768.69;6307259;28;20381;-55
2023/12/09 11:30:44;;;;;;;12.93;10.03;;;;;;;0.67;100.00;97806.72;6288327;28;20186;-54
2023/12/09 11:33:51;;;;;;;13.03;9.20;;;;;;;0.68;100.00;97810.94;6272525;28;20234;-54
2023/12/09 11:36:57;;;;;;;12.40;9.50;;;;;;;0.64;100.00;97811.47;6276489;28;20188;-55
2023/12/09 11:40:01;;;;;;;12.87;9.20;;;;;;;0.65;100.00;97811.31;6292016;28;20204;-51
2023/12/09 11:43:04;;;;;;;13.97;10.00;;;;;;;0.70;100.00;97802.94;6291097;28;20187;-53
2023/12/09 11:46:07;;;;;;;12.60;9.73;;;;;;;0.72;100.00;97788.63;6300838;28;20202;-52
2023/12/09 11:49:09;;;;;;;13.37;10.37;;;;;;;0.71;100.00;97800.13;6303092;28;20202;-50
2023/12/09 11:52:12;;;;;;;12.70;8.73;;;;;;;0.75;100.00;97796.16;6299932;28;20684;-55
2023/12/09 11:55:16;;;;;;;12.27;8.73;;;;;;;0.73;100.00;97795.50;6282605;28;20195;-55
2023/12/09 11:58:19;;;;;;;12.97;8.77;;;;;;;0.73;100.00;97795.50;6303177;28;20189;-51
2023/12/09 12:01:22;;;;;;;11.57;8.53;;;;;;;0.74;100.00;97786.66;6304519;28;20579;-53
2023/12/09 12:04:26;;;;;;;11.97;8.30;;;;;;;0.73;100.00;97785.03;6308580;28;20288;-53
2023/12/09 12:07:28;;;;;;;12.63;9.27;;;;;;;0.70;100.00;97788.00;6307474;28;20688;-55
2023/12/09 12:10:31;;;;;;;12.17;9.33;;;;;;;0.67;100.00;97784.91;6305082;28;20201;-53
2023/12/09 12:13:33;;;;;;;12.70;9.00;;;;;;;0.64;100.00;97785.25;6307640;28;20697;-53
2023/12/09 12:16:36;;;;;;;13.13;10.03;;;;;;;0.60;100.00;97791.88;6304170;28;20277;-55
2023/12/09 12:19:39;;;;;;;14.10;10.67;;;;;;;0.63;100.00;97781.81;6309655;28;20666;-54
2023/12/09 12:22:44;;;;;;;13.83;9.80;;;;;;;0.48;100.00;97747.72;6309595;28;20213;-55
2023/12/09 12:25:52;;;;;;;15.57;10.37;;;;;;;0.64;100.00;97772.16;6310801;28;20980;-55
2023/12/09 12:28:54;;;;;;;12.00;9.43;;;;;;;0.56;100.00;97780.91;6307399;28;20210;-55
2023/12/09 12:31:56;;;;;;;11.73;9.27;;;;;;;0.48;100.00;97766.06;6300656;28;20865;-56
2023/12/09 12:35:02;;;;;;;13.00;9.27;;;;;;;0.59;100.00;97774.50;6307610;28;20194;-53
2023/12/09 12:38:05;;;;;;;13.23;9.77;;;;;;;0.58;100.00;97765.00;6306039;28;20206;-51
2023/12/09 12:41:08;;;;;;;14.20;9.77;;;;;;;0.55;100.00;97758.31;6304674;28;20206;-53
2023/12/09 12:44:11;;;;;;;13.47;9.33;;;;;;;0.57;100.00;97751.09;6309218;28;20200;-54
2023/12/09 12:47:13;;;;;;;247.97;181.83;;;;;;;0.60;100.00;97757.78;6307100;28;20203;-53
2023/12/09 12:50:16;;;;;;;75.03;54.37;;;;;;;0.48;100.00;97744.28;6306507;28;20183;-54
2023/12/09 12:53:20;;;;;;;102.57;63.00;;;;;;;0.53;100.00;97744.56;6286503;28;20606;-53
2023/12/09 12:56:24;;;;;;;158.13;98.07;;;;;;;0.56;100.00;97754.69;6306967;28;20480;-53
2023/12/09 12:59:26;;;;;;;126.23;76.27;;;;;;;0.60;100.00;97750.75;6308593;28;20201;-51
2023/12/09 13:02:29;;;;;;;61.43;40.83;;;;;;;0.59;100.00;97735.16;6305741;28;20259;-51
2023/12/09 13:05:31;;;;;;;36.90;23.47;;;;;;;0.57;100.00;97739.78;6304157;28;20186;-50
2023/12/09 13:08:33;;;;;;;19.53;13.03;;;;;;;0.40;100.00;97729.44;6302365;28;20691;-55
2023/12/09 13:11:36;;;;;;;16.60;11.33;;;;;;;0.33;100.00;97723.25;6311814;28;20670;-51
2023/12/09 13:14:38;;;;;;;14.67;10.33;;;;;;;0.21;100.00;97725.50;6310421;28;20272;-54
2023/12/09 13:17:40;;;;;;;12.77;9.70;;;;;;;0.15;100.00;97718.34;6306280;28;20174;-54
2023/12/09 13:20:45;;;;;;;14.67;10.53;;;;;;;0.05;100.00;97717.75;6309796;28;20276;-54
2023/12/09 13:23:47;;;;;;;13.77;10.00;;;;;;;0.03;100.00;97697.94;6308162;28;20284;-52
2023/12/09 13:26:50;;;;;;;13.80;9.50;;;;;;;0.00;100.00;97704.38;6309337;28;20298;-41
2023/12/09 13:29:52;;;;;;;12.63;8.77;;;;;;;0.04;100.00;97699.56;6307054;28;20198;-42
2023/12/09 13:33:00;;;;;;;12.53;9.47;;;;;;;0.07;100.00;97697.44;6309641;28;20226;-41
2023/12/09 13:36:03;;;;;;;14.80;9.97;;;;;;;0.13;100.00;97695.91;6308035;28;20551;-40
2023/12/09 13:39:11;;;;;;;11.93;9.00;;;;;;;0.16;100.00;97696.38;6308022;28;20195;-40
2023/12/09 13:42:14;;;;;;;12.63;9.27;;;;;;;0.17;100.00;97695.38;6308128;28;20233;-40
2023/12/09 13:45:21;;;;;;;12.87;9.17;;;;;;;0.15;100.00;97680.84;6309611;28;20240;-41
2023/12/09 13:48:23;;;;;;;12.50;9.13;;;;;;;0.16;100.00;97685.09;6307865;28;20292;-41
2023/12/09 13:51:26;;;;;;;12.03;8.47;;;;;;;0.18;100.00;97683.91;6304156;28;20226;-41
2023/12/09 13:54:30;;;;;;;12.73;8.80;;;;;;;0.20;100.00;97687.19;6307747;28;20202;-42
2023/12/09 13:57:32;;;;;;;64.93;41.03;;;;;;;0.17;100.00;97686.72;6301522;28;20201;-41